Time;durP1;ratioP1;P1;durP2;ratioP2;P2;SDS_P1;SDS_P2;PMS_P1;PMS_P2;Temp;Humidity;BMP_temperature;BMP_pressure;BME280_temperature;BME280_humidity;BME280_pressure;Samples;Min_cycle;Max_cycle;Signal;HPM_P1;HPM_P2
2021/12/11 00:01:43;;;;;;;9.77;4.47;;;;;;;5.23;100.00;93631.25;5034104;28;20280;-61
2021/12/11 00:04:16;;;;;;;9.37;4.90;;;;;;;5.25;100.00;93614.28;5034045;28;20276;-63
2021/12/11 00:06:46;;;;;;;7.83;4.43;;;;;;;5.23;100.00;93616.94;5034230;28;20183;-61
2021/12/11 00:09:20;;;;;;;8.07;5.20;;;;;;;5.10;100.00;93622.16;5033916;28;20225;-59
2021/12/11 00:11:50;;;;;;;8.40;4.37;;;;;;;5.07;100.00;93616.53;5034135;28;20642;-61
2021/12/11 00:14:16;;;;;;;5.90;3.90;;;;;;;5.12;100.00;93632.09;5032424;28;20187;-58
2021/12/11 00:16:43;;;;;;;6.70;3.83;;;;;;;5.10;100.00;93638.97;5033881;28;20198;-59
2021/12/11 00:21:46;;;;;;;6.47;3.90;;;;;;;5.04;100.00;93677.22;5040462;22;20234;-60
2021/12/11 00:24:15;;;;;;;6.30;4.10;;;;;;;5.06;100.00;93678.72;5033366;28;20207;-61
2021/12/11 00:26:50;;;;;;;6.40;3.97;;;;;;;5.02;100.00;93679.06;5033523;28;20176;-59
2021/12/11 00:29:21;;;;;;;5.23;3.40;;;;;;;5.21;100.00;93678.41;5033606;28;20200;-60
2021/12/11 00:31:52;;;;;;;5.67;3.43;;;;;;;5.29;100.00;93681.13;5033311;28;20603;-60
2021/12/11 00:34:19;;;;;;;5.60;3.17;;;;;;;5.34;100.00;93691.63;5033775;28;20192;-61
2021/12/11 00:36:58;;;;;;;5.87;3.40;;;;;;;5.27;100.00;93688.00;5032080;28;20623;-63
2021/12/11 00:39:24;;;;;;;5.63;3.37;;;;;;;5.29;100.00;93689.50;5033252;28;20305;-61
2021/12/11 00:41:54;;;;;;;6.03;3.07;;;;;;;5.19;100.00;93670.19;5031862;28;20566;-58
2021/12/11 00:44:31;;;;;;;3.90;3.00;;;;;;;5.31;100.00;93664.16;5032686;28;20697;-63
2021/12/11 00:47:10;;;;;;;5.87;3.17;;;;;;;5.34;100.00;93674.00;5033102;28;20570;-60
2021/12/11 00:49:47;;;;;;;6.47;3.27;;;;;;;5.32;100.00;93669.06;5031891;28;20212;-60
2021/12/11 00:52:13;;;;;;;5.30;3.40;;;;;;;5.35;100.00;93655.44;5032958;28;20239;-60
2021/12/11 00:54:40;;;;;;;5.57;3.40;;;;;;;5.32;100.00;93660.72;5032977;28;20209;-60
2021/12/11 00:57:06;;;;;;;6.13;3.67;;;;;;;5.28;100.00;93656.84;5031797;28;20234;-61
2021/12/11 00:59:31;;;;;;;4.37;3.30;;;;;;;5.23;100.00;93646.34;5032683;28;20208;-62
2021/12/11 01:01:59;;;;;;;5.43;2.73;;;;;;;5.13;100.00;93629.44;5048288;22;20732;-61
2021/12/11 01:04:32;;;;;;;5.73;3.20;;;;;;;5.22;100.00;93644.75;5032239;28;20248;-60
2021/12/11 01:07:03;;;;;;;3.57;2.50;;;;;;;5.23;100.00;93641.31;5033388;28;20190;-63
2021/12/11 01:09:35;;;;;;;4.13;3.03;;;;;;;5.20;100.00;93646.59;5032973;28;20255;-60
2021/12/11 01:12:06;;;;;;;5.20;3.17;;;;;;;5.15;100.00;93638.59;5032994;28;20176;-63
2021/12/11 01:14:49;;;;;;;7.50;3.37;;;;;;;4.92;100.00;93628.66;5032597;28;20704;-60
2021/12/11 01:17:37;;;;;;;5.67;3.50;;;;;;;4.70;100.00;93612.84;5032829;28;20239;-59
2021/12/11 01:20:12;;;;;;;7.00;3.23;;;;;;;4.94;100.00;93634.38;5031303;28;20233;-62
2021/12/11 01:22:38;;;;;;;7.03;3.13;;;;;;;5.03;100.00;93641.16;5032985;28;20266;-59
2021/12/11 01:25:18;;;;;;;4.20;3.03;;;;;;;4.91;100.00;93657.25;5032695;28;20312;-59
2021/12/11 01:27:47;;;;;;;3.43;2.37;;;;;;;4.67;100.00;93641.56;5032636;28;20199;-63
2021/12/11 01:30:23;;;;;;;5.47;3.50;;;;;;;4.41;100.00;93617.63;5032143;28;20224;-61
2021/12/11 01:32:49;;;;;;;4.43;2.27;;;;;;;4.57;100.00;93633.13;5031259;28;20194;-61
2021/12/11 01:35:16;;;;;;;3.07;2.63;;;;;;;4.54;100.00;93625.84;5032202;28;20263;-61
2021/12/11 01:37:43;;;;;;;3.03;2.73;;;;;;;4.77;100.00;93639.91;5030989;28;20218;-60
2021/12/11 01:40:14;;;;;;;4.30;2.83;;;;;;;4.81;100.00;93638.75;5032148;28;20559;-63
2021/12/11 01:42:40;;;;;;;6.30;3.20;;;;;;;4.62;100.00;93620.19;5032721;28;20232;-60
2021/12/11 01:45:11;;;;;;;4.17;2.77;;;;;;;4.74;100.00;93614.19;5031900;28;20298;-60
2021/12/11 01:47:39;;;;;;;6.00;3.70;;;;;;;4.62;100.00;93595.03;5032643;28;20171;-59
2021/12/11 01:50:20;;;;;;;7.07;3.13;;;;;;;4.84;100.00;93612.56;5032049;28;20205;-63
2021/12/11 01:52:57;;;;;;;4.83;3.20;;;;;;;4.85;100.00;93624.19;5032557;28;20275;-58
2021/12/11 01:55:29;;;;;;;5.40;3.50;;;;;;;4.85;100.00;93624.19;5032239;28;20203;-62
2021/12/11 01:57:56;;;;;;;5.73;3.07;;;;;;;4.83;100.00;93626.84;5032236;28;20174;-62
2021/12/11 02:00:31;;;;;;;5.07;3.57;;;;;;;4.80;100.00;93618.75;5032043;28;20292;-61
2021/12/11 02:03:00;;;;;;;4.00;3.00;;;;;;;4.47;100.00;93613.81;5031928;28;20240;-60
2021/12/11 02:05:29;;;;;;;4.27;2.77;;;;;;;4.46;100.00;93614.75;5030599;28;20205;-60
2021/12/11 02:07:58;;;;;;;6.43;3.57;;;;;;;4.37;100.00;93610.44;5032285;28;20197;-59
2021/12/11 02:10:34;;;;;;;6.70;3.73;;;;;;;4.26;100.00;93581.88;5032100;28;20202;-59
2021/12/11 02:13:02;;;;;;;4.73;3.20;;;;;;;4.46;100.00;93597.16;5031171;28;20236;-60
2021/12/11 02:15:34;;;;;;;5.73;3.23;;;;;;;4.35;100.00;93597.97;5031836;28;20195;-62
2021/12/11 02:18:08;;;;;;;4.87;3.03;;;;;;;4.33;100.00;93607.34;5032366;28;20183;-60
2021/12/11 02:20:56;;;;;;;6.23;3.77;;;;;;;4.41;100.00;93606.75;5030482;28;20221;-63
2021/12/11 02:23:24;;;;;;;6.03;3.20;;;;;;;4.45;100.00;93616.47;5031265;28;20254;-59
2021/12/11 02:25:52;;;;;;;4.80;3.20;;;;;;;4.29;100.00;93608.50;5031602;28;20230;-62
2021/12/11 02:28:27;;;;;;;5.63;2.70;;;;;;;4.25;100.00;93612.19;5031832;28;20217;-62
2021/12/11 02:31:14;;;;;;;3.73;2.57;;;;;;;4.24;100.00;93610.59;5031704;28;20631;-61
2021/12/11 02:33:55;;;;;;;3.27;2.73;;;;;;;4.24;100.00;93615.63;5032005;28;20181;-61
2021/12/11 02:36:29;;;;;;;4.10;2.53;;;;;;;4.26;100.00;93608.75;5031833;28;20202;-61
2021/12/11 02:39:09;;;;;;;6.23;2.70;;;;;;;4.41;100.00;93612.59;5031726;28;20167;-62
2021/12/11 02:41:37;;;;;;;3.43;2.27;;;;;;;4.40;100.00;93608.50;5031741;28;20558;-62
2021/12/11 02:44:11;;;;;;;3.47;1.93;;;;;;;4.59;100.00;93603.63;5031624;28;20205;-61
2021/12/11 02:46:44;;;;;;;2.83;2.10;;;;;;;4.61;100.00;93590.91;5030380;28;20196;-61
2021/12/11 02:49:12;;;;;;;3.30;2.13;;;;;;;4.95;100.00;93602.41;5013729;28;20170;-62
2021/12/11 02:51:45;;;;;;;4.00;2.67;;;;;;;4.89;100.00;93596.16;5030355;28;20199;-60
2021/12/11 02:54:32;;;;;;;5.10;3.00;;;;;;;4.81;100.00;93588.41;5031557;28;20171;-61
2021/12/11 02:57:04;;;;;;;3.73;2.90;;;;;;;4.76;100.00;93595.53;5031798;28;20182;-62
2021/12/11 02:59:32;;;;;;;3.57;2.43;;;;;;;4.75;100.00;93606.53;5031382;28;20699;-61
2021/12/11 03:02:11;;;;;;;3.57;2.63;;;;;;;4.70;100.00;93593.50;5031375;28;20277;-62
2021/12/11 03:04:46;;;;;;;3.50;2.50;;;;;;;4.57;100.00;93584.50;5031623;28;20227;-59
2021/12/11 03:07:16;;;;;;;4.33;3.10;;;;;;;4.61;100.00;93580.84;5015391;28;20214;-60
2021/12/11 03:09:47;;;;;;;3.33;2.47;;;;;;;4.74;100.00;93582.28;5035341;28;20233;-60
2021/12/11 03:12:16;;;;;;;3.10;2.30;;;;;;;4.83;100.00;93589.09;5033776;28;20207;-60
2021/12/11 03:14:43;;;;;;;4.10;2.40;;;;;;;4.89;100.00;93582.75;5034950;28;20699;-61
2021/12/11 03:17:09;;;;;;;4.90;2.90;;;;;;;5.10;100.00;93576.81;5034847;28;20186;-61
2021/12/11 03:19:39;;;;;;;4.43;2.43;;;;;;;5.14;100.00;93587.44;5033617;28;20683;-60
2021/12/11 03:22:09;;;;;;;4.40;2.53;;;;;;;5.02;100.00;93584.19;5034766;28;20187;-61
2021/12/11 03:24:35;;;;;;;3.83;2.63;;;;;;;4.96;100.00;93572.09;5034748;28;20729;-64
2021/12/11 03:27:03;;;;;;;4.07;3.03;;;;;;;4.88;100.00;93561.84;5034851;28;20337;-61
2021/12/11 03:29:29;;;;;;;3.50;2.40;;;;;;;4.88;100.00;93550.97;5033301;28;20285;-60
2021/12/11 03:31:55;;;;;;;4.67;2.77;;;;;;;4.77;100.00;93540.94;5034784;28;20198;-62
2021/12/11 03:34:25;;;;;;;3.63;2.07;;;;;;;4.66;100.00;93536.00;5033182;28;20582;-62
2021/12/11 03:36:52;;;;;;;3.43;2.73;;;;;;;4.72;100.00;93535.50;5033357;28;20268;-62
2021/12/11 03:39:28;;;;;;;2.00;1.90;;;;;;;4.73;100.00;93520.25;5034698;28;20210;-62
2021/12/11 03:41:57;;;;;;;5.30;2.57;;;;;;;4.83;100.00;93522.84;5034589;28;20655;-63
2021/12/11 03:44:23;;;;;;;3.67;2.13;;;;;;;4.86;100.00;93535.19;5042948;22;20235;-61
2021/12/11 03:46:52;;;;;;;1.73;1.60;;;;;;;4.90;100.00;93537.34;5032956;28;20206;-59
2021/12/11 03:49:20;;;;;;;1.83;1.70;;;;;;;4.92;100.00;93538.00;5034473;28;20606;-58
2021/12/11 03:51:48;;;;;;;2.23;2.03;;;;;;;4.98;100.00;93551.81;5034274;28;20175;-60
2021/12/11 03:54:20;;;;;;;2.33;2.00;;;;;;;4.97;100.00;93555.25;5034122;28;20274;-61
2021/12/11 03:56:46;;;;;;;2.00;1.60;;;;;;;4.98;100.00;93559.38;5033437;28;20185;-62
2021/12/11 03:59:13;;;;;;;2.67;1.53;;;;;;;4.91;100.00;93571.66;5034185;28;20266;-61
2021/12/11 04:01:50;;;;;;;3.53;2.30;;;;;;;4.85;100.00;93561.25;5033924;28;20202;-61
2021/12/11 04:04:23;;;;;;;2.90;1.90;;;;;;;4.85;100.00;93562.06;5041242;22;20248;-59
2021/12/11 04:06:49;;;;;;;2.83;2.37;;;;;;;4.88;100.00;93561.84;5034205;28;20209;-62
2021/12/11 04:09:17;;;;;;;2.33;2.13;;;;;;;4.95;100.00;93562.94;5034143;28;20217;-61
2021/12/11 04:11:43;;;;;;;3.13;2.30;;;;;;;5.00;100.00;93568.41;5034002;28;20175;-62
2021/12/11 04:14:22;;;;;;;1.80;1.70;;;;;;;5.02;100.00;93574.13;5034276;28;20613;-60
2021/12/11 04:16:49;;;;;;;2.23;2.03;;;;;;;5.03;100.00;93560.59;5033708;28;20613;-63
2021/12/11 04:19:15;;;;;;;2.67;2.20;;;;;;;4.98;100.00;93561.88;5033224;28;20194;-60
2021/12/11 04:21:43;;;;;;;2.27;1.80;;;;;;;5.05;100.00;93562.97;5032589;28;20643;-61
2021/12/11 04:24:10;;;;;;;2.13;1.90;;;;;;;5.13;100.00;93557.34;5034135;28;20214;-60
2021/12/11 04:26:36;;;;;;;2.50;2.30;;;;;;;5.21;100.00;93563.34;5032336;28;20639;-59
2021/12/11 04:29:03;;;;;;;2.23;1.67;;;;;;;5.19;100.00;93550.09;5032565;28;20559;-60
2021/12/11 04:31:31;;;;;;;2.93;2.00;;;;;;;5.28;100.00;93549.31;5032264;28;20204;-60
2021/12/11 04:34:06;;;;;;;2.70;2.00;;;;;;;5.42;100.00;93550.69;5033868;28;20185;-63
2021/12/11 04:36:36;;;;;;;3.00;2.43;;;;;;;5.38;100.00;93537.56;5033534;28;20242;-58
2021/12/11 04:39:05;;;;;;;2.30;1.87;;;;;;;5.36;100.00;93531.84;5033939;28;20189;-61
2021/12/11 04:41:40;;;;;;;2.33;1.90;;;;;;;5.43;100.00;93527.13;5040647;22;20632;-62
2021/12/11 04:44:16;;;;;;;1.73;1.63;;;;;;;5.54;100.00;93529.53;5033448;28;20210;-60
2021/12/11 04:46:42;;;;;;;2.53;2.33;;;;;;;5.68;100.00;93529.97;5013370;28;20199;-62
2021/12/11 04:49:27;;;;;;;4.03;2.00;;;;;;;5.49;100.00;93517.34;5013473;28;20193;-61
2021/12/11 04:52:05;;;;;;;3.57;2.70;;;;;;;5.37;100.00;93527.63;5013572;28;20631;-61
2021/12/11 04:54:48;;;;;;;2.30;1.83;;;;;;;5.41;100.00;93523.94;5012158;28;20272;-62
2021/12/11 05:02:42;;;;;;;2.53;2.07;;;;;;;5.44;100.00;93523.66;5013419;28;20186;-60
2021/12/11 05:10:10;;;;;;;3.10;2.17;;;;;;;5.39;100.00;93524.06;5022747;22;20580;-62
2021/12/11 05:12:36;;;;;;;2.73;2.07;;;;;;;5.43;100.00;93517.03;5032706;28;20180;-60
2021/12/11 05:15:08;;;;;;;2.20;1.83;;;;;;;5.41;100.00;93516.38;5032681;28;20218;-63
2021/12/11 05:17:34;;;;;;;4.20;2.20;;;;;;;5.53;100.00;93515.34;5032329;28;20207;-60
2021/12/11 05:20:00;;;;;;;3.10;1.97;;;;;;;5.66;100.00;93521.75;5032856;28;20202;-62
2021/12/11 05:22:25;;;;;;;2.13;1.80;;;;;;;5.75;100.00;93528.56;5032273;28;20239;-61
2021/12/11 05:24:54;;;;;;;2.10;1.60;;;;;;;6.04;100.00;93505.91;5032464;28;20231;-60
2021/12/11 05:27:21;;;;;;;1.93;1.50;;;;;;;5.99;100.00;93520.66;5032408;28;20545;-60
2021/12/11 05:29:47;;;;;;;2.83;1.93;;;;;;;6.04;100.00;93532.88;5030945;28;20220;-59
2021/12/11 05:32:16;;;;;;;2.43;1.80;;;;;;;6.03;100.00;93534.59;5032202;28;20181;-60
2021/12/11 05:34:42;;;;;;;1.97;1.77;;;;;;;5.85;100.00;93523.56;5031130;28;20224;-61
2021/12/11 05:37:08;;;;;;;3.83;2.47;;;;;;;5.94;100.00;93517.72;5032243;28;20178;-61
2021/12/11 05:39:34;;;;;;;5.53;1.93;;;;;;;5.79;100.00;93521.53;5030748;28;20200;-59
2021/12/11 05:42:00;;;;;;;3.83;1.73;;;;;;;5.71;100.00;93512.09;5039318;22;20609;-60
2021/12/11 05:44:27;;;;;;;3.10;2.27;;;;;;;5.82;100.00;93516.19;5032066;28;20204;-62
2021/12/11 05:46:53;;;;;;;3.27;1.87;;;;;;;5.81;100.00;93507.88;5032085;28;20773;-64
2021/12/11 05:49:19;;;;;;;2.67;1.90;;;;;;;6.40;100.00;93510.31;5039441;22;20315;-66
2021/12/11 05:51:47;;;;;;;2.17;1.90;;;;;;;6.90;100.00;93517.72;5030949;28;20169;-63
2021/12/11 05:54:21;;;;;;;2.30;1.53;;;;;;;7.75;100.00;93505.69;5032387;28;20185;-61
2021/12/11 05:56:47;;;;;;;1.60;1.50;;;;;;;7.82;100.00;93520.16;5031810;28;20465;-64
2021/12/11 05:59:16;;;;;;;2.87;1.80;;;;;;;7.60;100.00;93536.53;5032358;28;20190;-64
2021/12/11 06:02:04;;;;;;;2.23;2.00;;;;;;;7.66;100.00;93565.50;5030681;28;20178;-62
2021/12/11 06:04:37;;;;;;;3.83;1.80;;;;;;;7.42;100.00;93552.56;5031119;28;20244;-62
2021/12/11 06:07:06;;;;;;;1.80;1.70;;;;;;;7.55;100.00;93556.34;5030687;28;20201;-61
2021/12/11 06:09:33;;;;;;;2.57;1.87;;;;;;;7.57;100.00;93546.13;5030421;28;20243;-64
2021/12/11 06:12:05;;;;;;;2.43;1.97;;;;;;;7.33;100.00;93535.69;5031816;28;20575;-61
2021/12/11 06:14:32;;;;;;;4.87;1.97;;;;;;;7.52;100.00;93560.91;5030515;28;20627;-61
2021/12/11 06:17:00;;;;;;;3.60;1.90;;;;;;;7.49;100.00;93546.03;5031798;28;20177;-62
2021/12/11 06:19:27;;;;;;;3.20;1.90;;;;;;;7.46;100.00;93556.41;5032080;28;20182;-64
2021/12/11 06:21:54;;;;;;;2.47;2.07;;;;;;;7.39;100.00;93540.97;5030304;28;20194;-63
2021/12/11 06:24:21;;;;;;;2.37;2.00;;;;;;;7.42;100.00;93552.56;5031837;28;20312;-64
2021/12/11 06:26:48;;;;;;;2.53;2.00;;;;;;;7.38;100.00;93548.72;5030282;28;20293;-64
2021/12/11 06:29:14;;;;;;;3.70;2.07;;;;;;;7.39;100.00;93547.78;5030608;28;20678;-60
2021/12/11 06:31:42;;;;;;;2.83;2.23;;;;;;;7.21;100.00;93532.53;5039063;22;20594;-62
2021/12/11 06:34:08;;;;;;;4.43;2.23;;;;;;;7.22;100.00;93543.44;5031448;28;20186;-64
2021/12/11 06:36:34;;;;;;;4.87;2.37;;;;;;;7.21;100.00;93557.00;5031469;28;20198;-61
2021/12/11 06:39:06;;;;;;;3.97;1.87;;;;;;;7.13;100.00;93542.50;5031777;28;20674;-65
2021/12/11 06:41:35;;;;;;;3.00;2.50;;;;;;;7.13;100.00;93534.16;5030080;28;20233;-65
2021/12/11 06:44:01;;;;;;;2.60;2.13;;;;;;;7.18;100.00;93552.22;5034875;28;20292;-61
2021/12/11 06:46:27;;;;;;;4.80;2.63;;;;;;;7.26;100.00;93547.28;5042672;22;20586;-63
2021/12/11 06:48:53;;;;;;;5.50;3.00;;;;;;;7.26;100.00;93552.34;5035363;28;20182;-61
2021/12/11 06:51:19;;;;;;;3.43;2.33;;;;;;;7.24;100.00;93551.69;5035161;28;20232;-61
2021/12/11 06:53:52;;;;;;;3.77;2.90;;;;;;;7.27;100.00;93538.78;5035468;28;20189;-63
2021/12/11 06:56:19;;;;;;;3.80;2.43;;;;;;;7.31;100.00;93532.50;5056680;22;20258;-61
2021/12/11 06:58:45;;;;;;;3.87;2.90;;;;;;;7.19;100.00;93534.38;5034129;28;20260;-65
2021/12/11 07:01:14;;;;;;;6.03;3.77;;;;;;;7.34;100.00;93533.03;5034136;28;20691;-65
2021/12/11 07:03:40;;;;;;;8.17;3.43;;;;;;;7.09;100.00;93522.72;5033849;28;20233;-63
2021/12/11 07:06:07;;;;;;;7.93;4.20;;;;;;;6.90;100.00;93528.63;5033961;28;20209;-61
2021/12/11 07:08:33;;;;;;;9.60;5.40;;;;;;;6.93;100.00;93537.66;5032479;28;20193;-64
2021/12/11 07:10:59;;;;;;;9.47;5.47;;;;;;;7.06;100.00;93526.31;4770028;22;7831166;-65
2021/12/11 07:13:25;;;;;;;6.00;4.23;;;;;;;7.15;100.00;93535.59;5034970;28;20183;-63
2021/12/11 07:15:52;;;;;;;6.50;4.43;;;;;;;7.18;100.00;93517.66;5035152;28;20592;-63
2021/12/11 07:18:19;;;;;;;10.80;5.40;;;;;;;7.23;100.00;93514.72;5035141;28;20190;-62
2021/12/11 07:20:45;;;;;;;8.10;4.77;;;;;;;7.32;100.00;93523.97;5035168;28;20236;-64
2021/12/11 07:23:11;;;;;;;6.07;4.10;;;;;;;7.68;100.00;93530.75;5034886;28;20588;-62
2021/12/11 07:25:48;;;;;;;5.83;4.53;;;;;;;7.82;100.00;93526.97;5042178;22;20612;-65
2021/12/11 07:28:15;;;;;;;5.23;3.70;;;;;;;7.83;100.00;93536.94;5033262;28;20189;-64
2021/12/11 07:30:44;;;;;;;8.17;5.17;;;;;;;7.79;100.00;93510.34;5034396;28;20752;-63
2021/12/11 07:33:11;;;;;;;10.13;5.30;;;;;;;7.70;100.00;93517.97;5034520;28;20193;-65
2021/12/11 07:35:38;;;;;;;9.47;5.17;;;;;;;7.59;100.00;93512.16;5034781;28;20209;-64
2021/12/11 07:38:04;;;;;;;11.57;5.30;;;;;;;7.46;100.00;93509.16;5034280;28;20610;-64
2021/12/11 07:40:35;;;;;;;8.17;4.67;;;;;;;7.56;100.00;93516.69;5034311;28;20658;-63
2021/12/11 07:43:01;;;;;;;8.77;4.90;;;;;;;7.71;100.00;93524.63;5034297;28;20281;-65
2021/12/11 07:45:28;;;;;;;10.53;6.03;;;;;;;7.70;100.00;93507.84;5041907;22;20221;-63
2021/12/11 07:47:54;;;;;;;10.97;5.53;;;;;;;7.91;100.00;93526.13;5034296;28;20193;-61
2021/12/11 07:50:21;;;;;;;9.93;5.87;;;;;;;8.01;100.00;93536.97;5034290;28;20581;-65
2021/12/11 07:52:53;;;;;;;13.50;6.77;;;;;;;8.03;100.00;93520.72;5034053;28;20194;-63
2021/12/11 07:55:26;;;;;;;13.13;6.63;;;;;;;8.07;100.00;93511.09;5034517;28;20659;-66
2021/12/11 07:57:53;;;;;;;11.17;7.23;;;;;;;8.03;100.00;93507.28;5034280;28;20216;-62
2021/12/11 08:00:23;;;;;;;10.50;6.73;;;;;;;8.22;100.00;93533.25;5034268;28;20199;-66
2021/12/11 08:02:48;;;;;;;8.67;6.07;;;;;;;8.10;100.00;93516.66;5033920;28;20672;-62
2021/12/11 08:05:15;;;;;;;8.63;5.47;;;;;;;8.10;100.00;93510.84;5034118;28;20641;-65
2021/12/11 08:07:42;;;;;;;9.67;6.07;;;;;;;8.12;100.00;93529.19;5032707;28;20265;-63
2021/12/11 08:10:15;;;;;;;9.77;6.13;;;;;;;8.33;100.00;93555.06;5043997;23;20283;-65
2021/12/11 08:12:42;;;;;;;9.10;6.03;;;;;;;8.26;100.00;93561.66;5033992;28;20182;-64
2021/12/11 08:15:10;;;;;;;14.53;6.97;;;;;;;8.10;100.00;93564.75;5041107;22;20226;-65
2021/12/11 08:17:35;;;;;;;10.83;6.50;;;;;;;7.94;100.00;93501.31;5033938;28;20593;-67
2021/12/11 08:20:03;;;;;;;10.77;6.23;;;;;;;7.87;100.00;93492.72;5041119;22;20774;-66
2021/12/11 08:22:28;;;;;;;9.50;6.50;;;;;;;8.01;100.00;93502.34;5033398;28;20194;-64
2021/12/11 08:24:54;;;;;;;8.33;6.17;;;;;;;8.19;100.00;93490.50;5041521;22;20271;-64
2021/12/11 08:27:21;;;;;;;9.50;5.90;;;;;;;8.37;100.00;93509.06;5034029;28;20171;-65
2021/12/11 08:29:50;;;;;;;9.83;6.03;;;;;;;8.59;100.00;93515.41;5033797;28;20203;-67
2021/12/11 08:32:16;;;;;;;6.47;5.23;;;;;;;8.66;100.00;93520.69;5033392;28;20185;-64
2021/12/11 08:34:42;;;;;;;8.63;6.13;;;;;;;8.59;100.00;93555.13;5032131;28;20298;-67
2021/12/11 08:37:12;;;;;;;10.33;6.13;;;;;;;8.48;100.00;93568.03;5033597;28;20257;-66
2021/12/11 08:39:37;;;;;;;5.20;4.27;;;;;;;8.34;100.00;93559.19;5032283;28;20241;-65
2021/12/11 08:42:06;;;;;;;6.47;4.43;;;;;;;8.44;100.00;93537.91;5045548;23;20247;-68
2021/12/11 08:44:36;;;;;;;6.00;4.13;;;;;;;8.70;100.00;93502.53;5013256;28;20288;-65
2021/12/11 08:47:07;;;;;;;5.10;3.60;;;;;;;8.93;100.00;93523.09;5013683;28;20182;-65
2021/12/11 08:49:36;;;;;;;8.00;3.77;;;;;;;8.95;100.00;93532.16;5013543;28;20579;-64
2021/12/11 08:52:11;;;;;;;5.30;4.00;;;;;;;9.03;100.00;93516.22;4995927;28;20664;-67
2021/12/11 08:54:37;;;;;;;6.37;4.47;;;;;;;9.08;100.00;93514.03;5013382;28;20198;-64
2021/12/11 08:57:08;;;;;;;5.90;4.30;;;;;;;9.00;100.00;93484.38;5013237;28;20241;-64
2021/12/11 08:59:39;;;;;;;5.40;3.87;;;;;;;9.18;100.00;93495.25;5020669;22;20199;-64
2021/12/11 09:02:17;;;;;;;5.90;4.00;;;;;;;9.17;100.00;93497.94;5012920;28;20550;-67
2021/12/11 09:04:55;;;;;;;5.27;3.90;;;;;;;9.26;100.00;93469.94;5012919;28;20634;-66
2021/12/11 09:10:16;;;;;;;9.23;6.40;;;;;;;9.08;100.00;93519.09;5040419;22;20719;-64
2021/12/11 09:15:19;;;;;;;6.23;5.03;;;;;;;8.83;100.00;93525.72;5040078;22;20237;-65
2021/12/11 09:20:34;;;;;;;7.60;5.00;;;;;;;9.04;100.00;93475.53;5047503;22;20530;-67
2021/12/11 09:23:30;;;;;;;6.77;4.63;;;;;;;8.88;100.00;93483.03;5032566;28;20715;-65
2021/12/11 09:26:11;;;;;;;9.80;5.87;;;;;;;8.79;100.00;93478.03;5032502;28;20309;-65
2021/12/11 09:28:47;;;;;;;7.10;4.70;;;;;;;8.63;100.00;93485.50;5032974;28;20154;-65
2021/12/11 09:34:11;;;;;;;16.43;10.57;;;;;;;8.98;100.00;93447.44;5039740;22;20241;-69
2021/12/11 09:36:42;;;;;;;7.83;5.93;;;;;;;9.05;100.00;93469.50;5036344;22;20226;-64
2021/12/11 09:39:19;;;;;;;7.57;5.73;;;;;;;9.11;100.00;93463.06;5032393;28;20198;-63
2021/12/11 09:41:44;;;;;;;6.60;4.90;;;;;;;9.16;100.00;93443.09;5012669;28;20245;-63
2021/12/11 09:46:56;;;;;;;8.73;4.80;;;;;;;9.40;100.00;93437.31;5061409;22;20229;-68
2021/12/11 09:49:26;;;;;;;7.50;4.87;;;;;;;9.53;100.00;93427.56;5032397;28;20196;-63
2021/12/11 09:52:01;;;;;;;6.57;4.77;;;;;;;9.71;100.00;93496.75;5032020;28;20174;-63
2021/12/11 09:54:28;;;;;;;6.97;4.70;;;;;;;9.56;100.00;93455.16;5032143;28;20166;-64
2021/12/11 09:57:01;;;;;;;5.50;4.20;;;;;;;9.57;100.00;93520.97;5030585;28;20186;-65
2021/12/11 09:59:29;;;;;;;6.27;4.10;;;;;;;9.41;100.00;93434.66;5032015;28;20647;-63
2021/12/11 10:02:01;;;;;;;5.80;3.80;;;;;;;9.48;100.00;93448.31;5032153;28;20182;-67
2021/12/11 10:04:36;;;;;;;7.80;3.90;;;;;;;9.57;100.00;93436.44;5040485;22;20217;-68
2021/12/11 10:09:46;;;;;;;6.50;3.77;;;;;;;9.47;100.00;93425.63;5012474;28;20206;-67
2021/12/11 10:12:16;;;;;;;7.60;3.93;;;;;;;9.49;100.00;93390.78;5011126;28;20185;-64
2021/12/11 10:14:53;;;;;;;6.83;3.93;;;;;;;9.56;100.00;93394.25;5036319;22;20715;-63
2021/12/11 10:17:23;;;;;;;9.00;3.57;;;;;;;9.73;100.00;93452.53;5032633;28;20635;-64
2021/12/11 10:19:50;;;;;;;7.53;4.27;;;;;;;9.73;100.00;93459.34;5037770;22;20230;-64
2021/12/11 10:22:34;;;;;;;4.67;3.60;;;;;;;9.68;100.00;93481.81;5016226;28;20171;-64
2021/12/11 10:25:01;;;;;;;4.40;3.27;;;;;;;9.71;100.00;93418.91;5015900;28;20214;-63
2021/12/11 10:27:31;;;;;;;5.03;3.63;;;;;;;9.55;100.00;93428.19;5016082;28;20190;-65
2021/12/11 10:29:58;;;;;;;6.73;4.20;;;;;;;9.61;100.00;93395.41;5016307;28;20247;-64
2021/12/11 10:32:30;;;;;;;4.93;3.97;;;;;;;9.77;100.00;93456.34;5023067;23;20262;-65
2021/12/11 10:35:00;;;;;;;5.73;3.87;;;;;;;9.80;100.00;93470.44;5015921;28;20289;-64
2021/12/11 10:37:33;;;;;;;5.63;3.50;;;;;;;9.62;100.00;93441.84;5016236;28;20232;-64
2021/12/11 10:40:03;;;;;;;5.07;3.23;;;;;;;9.54;100.00;93416.44;5015763;28;20203;-65
2021/12/11 10:42:29;;;;;;;4.53;3.00;;;;;;;9.45;100.00;93402.97;5016372;28;20179;-64
2021/12/11 10:44:58;;;;;;;4.07;3.10;;;;;;;9.64;100.00;93453.44;5015402;28;20222;-65
2021/12/11 10:47:31;;;;;;;4.33;2.93;;;;;;;9.66;100.00;93446.47;5016202;28;20372;-69
2021/12/11 10:49:58;;;;;;;4.40;3.17;;;;;;;9.61;100.00;93379.38;5014365;28;20199;-64
2021/12/11 10:52:27;;;;;;;4.10;3.00;;;;;;;9.73;100.00;93419.53;5016222;28;20585;-68
2021/12/11 10:54:55;;;;;;;3.67;2.83;;;;;;;9.66;100.00;93350.06;5029884;22;20782;-64
2021/12/11 10:57:23;;;;;;;4.03;2.63;;;;;;;9.66;100.00;93357.66;5015633;28;20229;-64
2021/12/11 10:59:52;;;;;;;4.97;3.40;;;;;;;9.74;100.00;93356.88;5015482;28;20696;-68
2021/12/11 11:02:26;;;;;;;10.60;6.73;;;;;;;9.87;100.00;93418.13;5015324;28;20267;-69
2021/12/11 11:04:55;;;;;;;14.20;8.77;;;;;;;9.92;100.00;93377.84;5015482;28;20273;-69
2021/12/11 11:07:22;;;;;;;10.93;8.00;;;;;;;9.93;100.00;93395.47;5014466;28;20186;-68
2021/12/11 11:09:49;;;;;;;10.43;7.80;;;;;;;9.82;100.00;93342.47;5015687;28;20209;-63
2021/12/11 11:12:18;;;;;;;11.57;7.70;;;;;;;9.75;100.00;93344.06;5015176;28;20186;-64
2021/12/11 11:14:44;;;;;;;14.00;7.77;;;;;;;9.90;100.00;93372.13;5032664;22;20218;-62
2021/12/11 11:17:17;;;;;;;11.93;8.00;;;;;;;9.79;100.00;93347.88;5048916;22;20230;-63
2021/12/11 11:19:44;;;;;;;12.37;8.33;;;;;;;9.95;100.00;93373.25;5035171;28;20205;-64
2021/12/11 11:22:14;;;;;;;8.37;6.87;;;;;;;9.93;100.00;93428.47;5035505;28;20679;-64
2021/12/11 11:24:44;;;;;;;11.23;7.80;;;;;;;10.02;100.00;93393.72;5034831;28;20210;-68
2021/12/11 11:27:10;;;;;;;12.60;7.37;;;;;;;9.91;100.00;93368.66;5057601;22;20267;-63
2021/12/11 11:29:38;;;;;;;12.40;6.80;;;;;;;9.81;100.00;93325.66;5048822;22;20230;-64
2021/12/11 11:32:10;;;;;;;9.60;7.13;;;;;;;9.86;100.00;93365.78;5034802;28;20324;-65
2021/12/11 11:34:40;;;;;;;9.93;6.50;;;;;;;9.87;100.00;93358.03;5041887;22;20239;-62
2021/12/11 11:37:08;;;;;;;10.03;6.43;;;;;;;9.81;100.00;93325.66;5034790;28;20631;-64
2021/12/11 11:39:34;;;;;;;11.37;7.33;;;;;;;9.97;100.00;93389.13;5034339;28;20206;-64
2021/12/11 11:42:04;;;;;;;8.83;6.63;;;;;;;9.87;100.00;93319.16;5034378;28;20228;-63
2021/12/11 11:44:31;;;;;;;8.10;5.53;;;;;;;9.89;100.00;93304.56;5034425;28;20264;-62
2021/12/11 11:47:00;;;;;;;9.03;6.20;;;;;;;9.90;100.00;93314.53;5034485;28;20182;-64
2021/12/11 11:49:27;;;;;;;8.23;5.77;;;;;;;9.86;100.00;93292.19;5034926;28;20246;-63
2021/12/11 11:52:05;;;;;;;10.03;5.17;;;;;;;9.96;100.00;93362.13;5035416;28;20258;-63
2021/12/11 11:54:31;;;;;;;10.17;5.37;;;;;;;9.90;100.00;93400.03;5034023;28;20300;-65
2021/12/11 11:57:19;;;;;;;9.93;4.90;;;;;;;9.73;100.00;93323.13;5034660;28;20178;-68
2021/12/11 11:59:46;;;;;;;8.30;5.50;;;;;;;9.62;100.00;93305.66;5034439;28;20644;-63
2021/12/11 12:02:17;;;;;;;6.40;5.00;;;;;;;9.60;100.00;93294.88;5033992;28;20190;-67
2021/12/11 12:04:45;;;;;;;8.97;5.10;;;;;;;9.80;100.00;93323.25;5032842;28;20313;-63
2021/12/11 12:07:11;;;;;;;9.07;5.47;;;;;;;9.80;100.00;93331.66;5032704;28;20240;-63
2021/12/11 12:09:44;;;;;;;7.57;4.07;;;;;;;9.68;100.00;93289.81;5032609;28;20198;-63
2021/12/11 12:12:14;;;;;;;8.43;4.73;;;;;;;9.64;100.00;93280.91;5048845;22;20249;-62
2021/12/11 12:14:42;;;;;;;8.03;5.10;;;;;;;9.83;100.00;93285.69;5040889;22;20328;-63